Time;durP1;ratioP1;P1;durP2;ratioP2;P2;SDS_P1;SDS_P2;PMS_P1;PMS_P2;Temp;Humidity;BMP_temperature;BMP_pressure;BME280_temperature;BME280_humidity;BME280_pressure;Samples;Min_cycle;Max_cycle;Signal;HPM_P1;HPM_P2
2022/03/02 00:01:42;;;;;;;16.90;10.25;;;;;;;2.41;42.54;96118.38;5013228;28;20022;-64
2022/03/02 00:04:08;;;;;;;20.13;11.90;;;;;;;2.80;42.37;96114.22;5013701;28;20493;-64
2022/03/02 00:06:34;;;;;;;17.90;11.52;;;;;;;3.20;41.65;96153.69;5013680;28;20026;-64
2022/03/02 00:08:59;;;;;;;19.38;11.15;;;;;;;2.84;41.12;96086.47;5011779;28;20033;-64
2022/03/02 00:11:25;;;;;;;16.75;10.60;;;;;;;3.27;41.02;96151.72;5013318;28;20110;-64
2022/03/02 00:13:50;;;;;;;23.70;11.40;;;;;;;3.21;41.01;96138.72;5013515;28;20101;-65
2022/03/02 00:16:17;;;;;;;27.52;13.88;;;;;;;2.94;40.92;96091.13;5014512;28;20033;-64
2022/03/02 00:18:44;;;;;;;30.33;14.90;;;;;;;3.37;40.85;96137.97;5013035;28;20022;-64
2022/03/02 00:21:10;;;;;;;19.05;12.88;;;;;;;3.11;41.28;96092.78;5013190;28;20030;-64
2022/03/02 00:23:35;;;;;;;21.20;12.18;;;;;;;3.41;41.25;96125.16;5013109;28;20037;-64
2022/03/02 00:26:01;;;;;;;31.13;12.55;;;;;;;3.14;41.28;96075.75;5013316;28;20084;-64
2022/03/02 00:28:27;;;;;;;17.27;11.32;;;;;;;3.37;41.29;96123.00;5013171;28;20506;-64
2022/03/02 00:30:52;;;;;;;16.35;10.20;;;;;;;3.10;41.33;96072.00;5013334;28;20025;-64
2022/03/02 00:33:18;;;;;;;15.57;10.55;;;;;;;2.91;41.40;96049.53;5013020;28;20105;-64
2022/03/02 00:35:43;;;;;;;14.43;9.75;;;;;;;2.97;41.66;96059.94;5013263;28;20109;-62
2022/03/02 00:38:10;;;;;;;15.10;10.32;;;;;;;3.05;41.25;96056.91;5013016;28;20108;-64
2022/03/02 00:40:38;;;;;;;15.55;11.43;;;;;;;3.49;41.37;96112.44;5012612;28;20041;-64
2022/03/02 00:43:03;;;;;;;16.20;12.05;;;;;;;3.30;41.37;96080.28;5012814;28;20093;-64
2022/03/02 00:45:29;;;;;;;21.98;11.93;;;;;;;3.27;41.68;96075.47;5012816;28;20069;-64
2022/03/02 00:47:55;;;;;;;18.65;11.23;;;;;;;3.34;41.31;96097.19;5011376;28;20510;-64
2022/03/02 00:50:20;;;;;;;13.88;10.55;;;;;;;3.14;41.55;96067.88;5012336;28;20022;-64
2022/03/02 00:52:46;;;;;;;21.65;11.70;;;;;;;3.35;41.49;96113.75;5012751;28;20026;-64
2022/03/02 00:55:12;;;;;;;13.65;10.60;;;;;;;3.02;41.95;96057.41;5012796;28;20363;-64
2022/03/02 00:57:37;;;;;;;18.00;9.75;;;;;;;3.23;41.63;96091.97;5012591;28;20057;-63
2022/03/02 01:00:06;;;;;;;17.50;9.95;;;;;;;2.96;41.48;96054.88;5017911;28;20025;-65
2022/03/02 01:02:31;;;;;;;12.35;8.82;;;;;;;3.18;41.54;96084.00;5013793;28;20053;-64
2022/03/02 01:04:57;;;;;;;12.82;10.35;;;;;;;2.90;41.25;96040.06;5012592;28;20646;-64
2022/03/02 01:07:22;;;;;;;13.05;9.27;;;;;;;3.12;41.75;96081.25;5012421;28;20375;-64
2022/03/02 01:09:48;;;;;;;14.55;9.50;;;;;;;2.74;41.68;96015.31;5012395;28;20133;-63
2022/03/02 01:12:13;;;;;;;15.60;9.82;;;;;;;2.75;42.04;96022.16;5010916;28;20538;-64
2022/03/02 01:14:38;;;;;;;12.65;9.95;;;;;;;2.17;42.14;95939.06;5014055;28;20472;-64
2022/03/02 01:17:04;;;;;;;16.75;10.20;;;;;;;2.67;43.65;96094.25;5017685;28;20060;-64
2022/03/02 01:19:30;;;;;;;14.50;10.15;;;;;;;2.25;45.07;96093.56;5010446;28;20032;-64
2022/03/02 01:21:55;;;;;;;12.13;9.77;;;;;;;2.08;45.21;96081.13;5011966;28;20490;-64
2022/03/02 01:24:20;;;;;;;15.48;9.73;;;;;;;1.04;47.44;96048.38;5012124;28;20021;-64
2022/03/02 01:26:46;;;;;;;12.75;9.35;;;;;;;1.48;47.18;96099.56;5012164;28;20018;-64
2022/03/02 01:29:12;;;;;;;14.32;10.32;;;;;;;1.33;47.15;96108.84;5011791;28;20127;-63
2022/03/02 01:31:37;;;;;;;16.80;9.70;;;;;;;0.86;47.52;96058.84;5020655;28;20616;-64
2022/03/02 01:34:03;;;;;;;11.95;9.25;;;;;;;1.17;45.75;96000.22;5031789;28;20026;-63
2022/03/02 01:36:28;;;;;;;13.60;9.30;;;;;;;0.99;46.61;96059.50;5031679;28;20025;-64
2022/03/02 01:38:53;;;;;;;12.63;8.65;;;;;;;1.08;47.12;96077.56;5030170;28;20033;-64
2022/03/02 01:41:22;;;;;;;13.85;8.52;;;;;;;1.91;45.32;96080.19;5031499;28;20021;-64
2022/03/02 01:43:49;;;;;;;14.60;9.18;;;;;;;1.87;44.47;96038.91;5030209;28;20017;-64
2022/03/02 01:46:18;;;;;;;15.07;9.05;;;;;;;1.94;44.02;96019.38;5023502;28;20029;-64
2022/03/02 01:48:45;;;;;;;12.93;8.88;;;;;;;2.11;43.67;96030.03;5031052;28;20025;-64
2022/03/02 01:51:11;;;;;;;15.20;9.95;;;;;;;2.07;43.51;96013.13;5031356;28;20091;-64
2022/03/02 01:53:36;;;;;;;15.05;10.18;;;;;;;2.35;43.63;96064.91;5029190;28;20454;-64
2022/03/02 01:56:02;;;;;;;14.40;9.60;;;;;;;2.25;43.71;96054.19;5031086;28;20022;-64
2022/03/02 01:58:29;;;;;;;17.10;9.82;;;;;;;2.18;43.58;96033.31;5029710;28;20053;-64
2022/03/02 02:00:55;;;;;;;11.52;9.55;;;;;;;2.41;43.85;96050.91;5025484;28;20014;-64
2022/03/02 02:03:20;;;;;;;13.98;10.30;;;;;;;1.27;43.35;95883.31;5019424;28;20036;-64
2022/03/02 02:05:46;;;;;;;14.02;10.32;;;;;;;1.92;43.55;95983.91;5029851;28;20032;-64
2022/03/02 02:08:11;;;;;;;13.63;10.40;;;;;;;2.05;43.84;96021.25;5031108;28;20025;-64
2022/03/02 02:10:37;;;;;;;16.70;10.20;;;;;;;2.28;43.52;96046.66;5029512;28;20398;-64
2022/03/02 02:13:03;;;;;;;12.77;9.68;;;;;;;2.05;43.90;96002.88;5029904;28;20465;-64
2022/03/02 02:15:29;;;;;;;16.25;10.43;;;;;;;2.15;43.86;96011.97;5022595;28;20033;-64
2022/03/02 02:17:55;;;;;;;17.08;10.30;;;;;;;2.06;43.67;96004.47;5010956;28;20037;-64
2022/03/02 02:20:23;;;;;;;13.35;10.48;;;;;;;2.25;44.16;96043.69;5010799;28;20364;-64
2022/03/02 02:22:49;;;;;;;16.33;10.63;;;;;;;2.02;43.88;95995.44;5011214;28;20026;-64
2022/03/02 02:25:15;;;;;;;15.32;9.73;;;;;;;2.24;44.16;96031.59;5009971;28;20054;-64
2022/03/02 02:27:44;;;;;;;15.35;9.98;;;;;;;1.83;44.05;95980.84;5011310;28;20121;-64
2022/03/02 02:30:11;;;;;;;13.30;10.30;;;;;;;1.95;44.17;95993.97;5013702;28;20052;-64
2022/03/02 02:32:37;;;;;;;15.07;10.85;;;;;;;1.83;44.53;95984.25;5014321;28;20030;-64
2022/03/02 02:35:04;;;;;;;13.75;10.38;;;;;;;1.95;44.71;96021.00;5031006;28;20025;-64
2022/03/02 02:37:33;;;;;;;24.60;11.38;;;;;;;2.03;44.58;96023.28;5029595;28;20030;-64
2022/03/02 02:40:00;;;;;;;13.77;10.88;;;;;;;1.48;44.76;95965.84;5029368;28;20117;-64
2022/03/02 02:42:26;;;;;;;17.92;11.30;;;;;;;1.89;44.80;96021.88;5030678;28;20044;-64
2022/03/02 02:44:52;;;;;;;13.02;10.43;;;;;;;1.95;44.56;96015.75;5029229;28;20359;-64
2022/03/02 02:47:18;;;;;;;18.95;11.10;;;;;;;1.87;44.92;95992.47;5013156;28;20068;-64
2022/03/02 02:49:43;;;;;;;15.80;10.23;;;;;;;1.93;44.72;96004.69;5010830;28;20057;-63
2022/03/02 02:52:09;;;;;;;23.83;11.65;;;;;;;1.17;44.67;95884.91;5010625;28;20055;-64
2022/03/02 02:54:34;;;;;;;16.23;10.93;;;;;;;1.89;44.75;95998.28;5009757;28;20041;-63
2022/03/02 02:57:00;;;;;;;15.43;10.23;;;;;;;1.72;45.18;95973.75;5009530;28;20088;-64
2022/03/02 02:59:25;;;;;;;17.63;11.38;;;;;;;1.85;44.82;95983.25;5009225;28;20041;-64
2022/03/02 03:01:51;;;;;;;21.52;11.50;;;;;;;1.97;45.06;96016.31;5008893;28;20109;-64
2022/03/02 03:04:16;;;;;;;20.05;10.57;;;;;;;1.73;44.94;95973.53;5010350;28;20654;-65
2022/03/02 03:06:42;;;;;;;16.88;10.30;;;;;;;1.81;45.16;95980.28;5013765;28;20035;-63
2022/03/02 03:09:07;;;;;;;20.70;12.52;;;;;;;1.65;45.19;95952.09;5014400;28;20091;-67
2022/03/02 03:11:33;;;;;;;18.80;11.25;;;;;;;1.88;45.40;95991.44;5013373;28;20061;-63
2022/03/02 03:13:59;;;;;;;17.05;10.95;;;;;;;1.85;45.48;95984.03;5014764;28;20036;-63
2022/03/02 03:16:24;;;;;;;17.40;10.38;;;;;;;1.96;45.58;95998.97;5017191;28;20030;-63
2022/03/02 03:18:50;;;;;;;16.85;10.35;;;;;;;1.98;45.38;96007.41;5014275;28;20022;-64
2022/03/02 03:21:15;;;;;;;17.05;11.38;;;;;;;2.01;45.45;96014.03;5013263;28;20029;-64
2022/03/02 03:23:41;;;;;;;17.73;10.80;;;;;;;2.01;45.48;96019.28;5013138;28;20085;-63
2022/03/02 03:26:06;;;;;;;17.38;11.10;;;;;;;1.99;45.80;96021.31;5014425;28;20026;-63
2022/03/02 03:28:32;;;;;;;22.95;11.73;;;;;;;1.60;45.63;95952.78;5014118;28;20041;-63
2022/03/02 03:30:57;;;;;;;16.75;11.02;;;;;;;1.39;45.51;95920.06;5016148;28;20097;-63
2022/03/02 03:33:22;;;;;;;16.77;10.13;;;;;;;1.49;45.81;95941.25;5014129;28;20066;-63
2022/03/02 03:35:48;;;;;;;14.65;10.32;;;;;;;1.94;45.84;96016.75;5014366;28;20475;-64
2022/03/02 03:38:13;;;;;;;15.95;10.82;;;;;;;1.73;45.67;95970.91;5014381;28;20033;-63
2022/03/02 03:40:39;;;;;;;13.55;9.65;;;;;;;1.74;45.45;95963.84;5012412;28;20570;-63
2022/03/02 03:43:04;;;;;;;20.40;10.43;;;;;;;1.62;45.75;95957.78;5014244;28;20081;-63
2022/03/02 03:45:30;;;;;;;16.90;10.70;;;;;;;1.99;46.12;96008.22;5014338;28;20022;-64
2022/03/02 03:47:56;;;;;;;15.48;10.15;;;;;;;1.94;45.92;96001.03;5013027;28;20030;-63
2022/03/02 03:50:21;;;;;;;19.45;10.48;;;;;;;2.06;45.96;96009.72;5012696;28;20589;-65
2022/03/02 03:52:47;;;;;;;13.52;10.88;;;;;;;1.96;45.87;95988.50;5013975;28;20026;-65
2022/03/02 03:55:14;;;;;;;15.13;10.93;;;;;;;2.08;45.65;96006.84;5012640;28;20032;-65
2022/03/02 03:57:40;;;;;;;22.52;10.55;;;;;;;2.11;46.17;95998.53;5013927;28;20033;-64
2022/03/02 04:00:10;;;;;;;12.60;10.57;;;;;;;1.85;45.91;95954.38;5013604;28;20046;-63
2022/03/02 04:02:36;;;;;;;12.20;9.80;;;;;;;1.82;46.05;95953.81;5013446;28;20034;-64
2022/03/02 04:05:01;;;;;;;13.00;9.20;;;;;;;1.74;45.63;95932.34;5013686;28;20026;-64
2022/03/02 04:07:27;;;;;;;14.75;10.75;;;;;;;1.82;45.67;95932.03;5012550;28;20384;-64
2022/03/02 04:09:52;;;;;;;18.67;9.85;;;;;;;2.19;45.71;95987.66;5013229;28;20026;-63
2022/03/02 04:12:17;;;;;;;13.93;9.02;;;;;;;2.24;45.29;95974.66;5013463;28;20398;-64
2022/03/02 04:14:44;;;;;;;16.17;9.50;;;;;;;2.15;45.61;95955.06;5013618;28;20451;-64
2022/03/02 04:17:09;;;;;;;16.83;10.90;;;;;;;2.21;45.63;95940.22;5013274;28;20048;-64
2022/03/02 04:19:35;;;;;;;17.42;11.23;;;;;;;2.18;44.86;95924.91;5013154;28;20030;-64
2022/03/02 04:22:00;;;;;;;12.55;10.27;;;;;;;2.67;44.81;95994.44;5013361;28;20022;-64
2022/03/02 04:24:26;;;;;;;14.35;10.23;;;;;;;2.70;45.16;95987.91;5013420;28;20534;-64
2022/03/02 04:26:51;;;;;;;13.32;9.70;;;;;;;2.74;44.56;95979.34;5013221;28;20032;-65
2022/03/02 04:29:17;;;;;;;11.95;9.52;;;;;;;2.67;44.85;95959.50;5011682;28;20606;-65
2022/03/02 04:31:42;;;;;;;15.32;10.50;;;;;;;2.64;44.46;95949.44;5015756;28;20052;-64
2022/03/02 04:34:07;;;;;;;18.02;10.15;;;;;;;2.74;44.57;95954.91;5032864;28;20064;-64
2022/03/02 04:36:33;;;;;;;15.52;9.70;;;;;;;2.66;43.97;95940.28;5033076;28;20036;-64
2022/03/02 04:38:58;;;;;;;15.60;9.45;;;;;;;2.51;44.52;95903.25;5032480;28;20532;-65
2022/03/02 04:41:24;;;;;;;11.85;9.27;;;;;;;2.57;43.92;95897.84;5032665;28;20458;-64
2022/03/02 04:43:50;;;;;;;13.73;9.95;;;;;;;2.83;44.47;95933.28;5032956;28;20482;-64
2022/03/02 04:46:15;;;;;;;11.13;9.15;;;;;;;2.99;43.83;95950.09;5032452;28;20065;-64
2022/03/02 04:48:41;;;;;;;10.40;8.90;;;;;;;3.00;44.20;95971.94;5013095;28;20096;-64
2022/03/02 04:51:06;;;;;;;13.77;9.50;;;;;;;2.62;44.15;95891.09;5013269;28;20030;-64
2022/03/02 04:53:31;;;;;;;11.88;8.30;;;;;;;3.09;43.79;95952.91;5013096;28;20665;-64
2022/03/02 04:55:57;;;;;;;12.60;9.23;;;;;;;2.76;43.50;95895.81;5011695;28;20041;-64
2022/03/02 04:58:22;;;;;;;13.70;9.07;;;;;;;2.94;43.40;95907.16;5012325;28;20036;-65
2022/03/02 05:00:48;;;;;;;11.43;9.30;;;;;;;3.11;43.62;95940.31;5015297;28;20022;-64
2022/03/02 05:03:14;;;;;;;15.18;9.32;;;;;;;2.88;43.17;95887.09;5024194;28;20033;-64
2022/03/02 05:05:39;;;;;;;12.82;9.52;;;;;;;3.19;43.53;95931.25;5032442;28;20454;-64
2022/03/02 05:08:06;;;;;;;17.70;9.43;;;;;;;3.20;43.29;95919.72;5032318;28;20092;-64
2022/03/02 05:10:32;;;;;;;11.30;8.15;;;;;;;3.25;43.17;95924.25;5031881;28;20030;-64
2022/03/02 05:12:57;;;;;;;11.10;8.32;;;;;;;3.27;43.20;95922.16;5032249;28;20417;-64
2022/03/02 05:15:23;;;;;;;11.13;8.48;;;;;;;3.38;42.79;95937.09;5032237;28;20551;-64
2022/03/02 05:17:49;;;;;;;12.43;8.63;;;;;;;3.20;42.37;95932.06;5019361;28;20037;-64
2022/03/02 05:20:17;;;;;;;13.70;8.32;;;;;;;1.73;45.45;95949.91;5010566;28;20029;-63
2022/03/02 05:22:43;;;;;;;11.18;8.73;;;;;;;1.79;45.19;95932.47;5012284;28;20470;-64
2022/03/02 05:25:12;;;;;;;13.30;8.00;;;;;;;2.02;45.38;95956.06;5012459;28;20038;-64
2022/03/02 05:27:38;;;;;;;13.05;8.43;;;;;;;2.40;44.60;95938.19;5011415;28;20026;-64
2022/03/02 05:30:04;;;;;;;14.27;8.55;;;;;;;2.86;43.95;95940.66;5011626;28;20092;-65
2022/03/02 05:32:29;;;;;;;13.57;9.05;;;;;;;3.07;43.17;95936.59;5019986;28;20033;-64
2022/03/02 05:34:55;;;;;;;29.98;9.25;;;;;;;3.22;43.24;95941.28;5031837;28;20401;-64
2022/03/02 05:37:20;;;;;;;15.70;8.68;;;;;;;3.17;42.79;95912.28;5030673;28;20021;-64
2022/03/02 05:39:47;;;;;;;9.98;8.10;;;;;;;3.29;42.59;95925.38;5031461;28;20679;-65
2022/03/02 05:42:12;;;;;;;14.95;8.82;;;;;;;3.13;42.17;95890.94;5029886;28;20441;-64
2022/03/02 05:44:38;;;;;;;12.80;7.93;;;;;;;3.48;42.42;95926.75;5031512;28;20032;-63
2022/03/02 05:47:04;;;;;;;12.40;8.38;;;;;;;3.47;42.12;95922.50;5025018;28;20026;-64
2022/03/02 05:49:29;;;;;;;10.63;7.22;;;;;;;3.57;41.65;95924.50;5010413;28;20164;-65
2022/03/02 05:51:54;;;;;;;9.45;7.72;;;;;;;3.63;41.71;95905.09;5011918;28;20530;-65
2022/03/02 05:54:20;;;;;;;12.82;8.23;;;;;;;3.78;41.33;95918.47;5012059;28;20101;-64
2022/03/02 05:56:45;;;;;;;12.43;7.90;;;;;;;3.83;41.23;95925.66;5011763;28;20449;-65
2022/03/02 05:59:14;;;;;;;14.45;7.47;;;;;;;3.82;41.04;95916.19;5011599;28;20030;-67
2022/03/02 06:01:41;;;;;;;12.63;7.97;;;;;;;4.03;40.87;95936.47;5015994;28;20088;-65
2022/03/02 06:04:07;;;;;;;14.48;7.57;;;;;;;3.98;40.53;95923.25;5026232;28;20029;-63
2022/03/02 06:06:35;;;;;;;9.25;7.68;;;;;;;3.80;40.63;95889.31;5030525;28;20025;-64
2022/03/02 06:09:02;;;;;;;22.67;8.50;;;;;;;4.06;40.45;95938.63;5031043;28;20600;-64
2022/03/02 06:11:29;;;;;;;9.07;7.53;;;;;;;4.03;40.52;95933.03;5031394;28;20049;-65
2022/03/02 06:13:55;;;;;;;9.95;7.88;;;;;;;4.03;40.73;95931.22;5030202;28;20510;-62
2022/03/02 06:16:20;;;;;;;11.23;7.65;;;;;;;3.79;40.32;95896.41;5031548;28;20076;-64
2022/03/02 06:18:46;;;;;;;14.07;7.85;;;;;;;3.88;40.55;95923.88;5023779;28;20508;-64
2022/03/02 06:21:16;;;;;;;16.00;7.78;;;;;;;3.91;40.33;95923.41;5030105;28;20071;-64
2022/03/02 06:23:42;;;;;;;10.45;7.93;;;;;;;3.80;40.43;95910.38;5029762;28;20630;-65
2022/03/02 06:26:08;;;;;;;12.15;7.93;;;;;;;3.89;40.59;95914.19;5030914;28;20018;-61
2022/03/02 06:28:34;;;;;;;12.07;7.80;;;;;;;3.95;40.56;95926.38;5029479;28;20025;-63
2022/03/02 06:30:59;;;;;;;9.98;7.80;;;;;;;3.89;40.37;95908.94;5030038;28;20018;-68
2022/03/02 06:33:25;;;;;;;9.45;7.65;;;;;;;3.87;40.99;95917.03;5013728;28;20026;-70
2022/03/02 06:35:50;;;;;;;13.93;7.20;;;;;;;3.73;40.62;95891.31;5010857;28;20030;-64
2022/03/02 06:38:17;;;;;;;17.02;7.85;;;;;;;4.08;40.76;95928.63;5009483;28;20121;-64
2022/03/02 06:41:01;;;;;;;11.35;7.63;;;;;;;4.02;40.40;95924.34;5010253;28;20105;-64
2022/03/02 06:43:31;;;;;;;13.13;7.40;;;;;;;4.19;40.35;95940.09;5010809;28;20489;-64
2022/03/02 06:46:07;;;;;;;15.13;7.10;;;;;;;4.20;40.03;95941.72;5010786;28;20036;-64
2022/03/02 06:48:41;;;;;;;12.02;6.80;;;;;;;4.12;40.04;95924.50;5011833;28;20025;-63
2022/03/02 06:51:13;;;;;;;11.00;6.72;;;;;;;4.30;39.80;95946.28;5010843;28;20042;-64
2022/03/02 06:53:43;;;;;;;7.32;5.78;;;;;;;4.29;39.88;95923.63;5010712;28;20489;-63
2022/03/02 06:56:08;;;;;;;12.25;8.23;;;;;;;4.45;39.94;95930.69;5010558;28;20092;-62
2022/03/02 06:58:47;;;;;;;9.90;6.70;;;;;;;4.26;39.91;95919.66;5010385;28;20495;-70
2022/03/02 07:01:16;;;;;;;12.82;7.47;;;;;;;4.50;40.31;95936.00;5011787;28;20045;-65
2022/03/02 07:03:48;;;;;;;8.18;6.45;;;;;;;4.49;39.59;95913.34;5009468;28;20485;-63
2022/03/02 07:06:15;;;;;;;12.93;6.93;;;;;;;4.77;39.41;95954.53;5010625;28;20028;-62
2022/03/02 07:08:44;;;;;;;12.88;7.10;;;;;;;4.64;38.82;95921.41;5010210;28;20038;-64
2022/03/02 07:11:10;;;;;;;10.55;6.53;;;;;;;4.49;38.40;95949.44;5010302;28;20029;-62
2022/03/02 07:13:36;;;;;;;12.88;6.70;;;;;;;4.32;38.93;95923.16;5010691;28;20478;-64
2022/03/02 07:16:01;;;;;;;15.45;7.25;;;;;;;3.76;39.66;95936.38;5010343;28;20383;-64
2022/03/02 07:18:27;;;;;;;16.60;8.57;;;;;;;3.53;39.89;95905.78;5012993;28;20596;-62
2022/03/02 07:20:57;;;;;;;17.45;10.10;;;;;;;4.42;39.27;95923.28;5028888;28;20029;-63
2022/03/02 07:23:28;;;;;;;22.77;9.35;;;;;;;4.80;39.18;95934.75;5029988;28;20025;-64
2022/03/02 07:26:00;;;;;;;21.10;10.10;;;;;;;5.08;38.72;95929.25;5027207;28;20033;-61
2022/03/02 07:28:26;;;;;;;21.33;8.77;;;;;;;5.25;38.33;95915.16;5029471;28;20049;-62
2022/03/02 07:30:53;;;;;;;18.42;8.25;;;;;;;5.58;37.76;95938.66;5029922;28;20033;-62
2022/03/02 07:33:21;;;;;;;13.77;8.13;;;;;;;5.70;37.44;95918.16;5029349;28;20071;-62
2022/03/02 07:35:53;;;;;;;22.33;8.30;;;;;;;6.04;37.18;95931.09;5010308;28;20113;-61
2022/03/02 07:38:20;;;;;;;12.35;7.50;;;;;;;6.14;37.07;95917.13;5009918;28;20117;-64
2022/03/02 07:40:48;;;;;;;13.35;7.53;;;;;;;6.23;37.07;95916.38;5009879;28;20038;-63
2022/03/02 07:43:14;;;;;;;14.88;7.57;;;;;;;6.47;36.29;95921.25;5010638;28;20036;-63
2022/03/02 07:45:40;;;;;;;19.33;8.18;;;;;;;6.61;36.15;95917.09;5010141;28;20053;-61
2022/03/02 07:48:05;;;;;;;18.20;8.48;;;;;;;6.79;35.94;95918.44;5023126;28;20073;-63
2022/03/02 07:50:31;;;;;;;13.75;7.90;;;;;;;6.81;35.86;95899.66;5029644;28;20485;-64
2022/03/02 07:53:00;;;;;;;15.05;7.70;;;;;;;6.94;35.85;95902.63;5031626;28;20032;-62
2022/03/02 07:55:28;;;;;;;15.07;7.53;;;;;;;7.11;35.52;95904.22;5033621;28;20056;-61
2022/03/02 07:57:55;;;;;;;13.73;8.00;;;;;;;7.34;35.16;95908.22;5032232;28;20061;-61
2022/03/02 08:00:22;;;;;;;12.30;7.80;;;;;;;7.58;35.46;95911.16;5031975;28;20399;-60
2022/03/02 08:02:48;;;;;;;10.40;7.47;;;;;;;7.76;35.14;95906.09;5019156;28;20026;-61
2022/03/02 08:05:14;;;;;;;13.52;7.93;;;;;;;7.87;34.74;95884.88;5013651;28;20025;-60
2022/03/02 08:07:39;;;;;;;8.95;7.53;;;;;;;7.92;34.07;95867.13;5013480;28;20108;-60
2022/03/02 08:10:06;;;;;;;12.40;7.53;;;;;;;8.13;33.92;95870.50;5013246;28;20029;-60
2022/03/02 08:12:31;;;;;;;6.78;6.10;;;;;;;8.37;32.67;95896.44;5013172;28;20034;-60
2022/03/02 08:14:57;;;;;;;13.30;5.72;;;;;;;8.44;32.46;95896.94;5013397;28;20433;-60
2022/03/02 08:17:23;;;;;;;8.55;6.05;;;;;;;8.51;32.15;95900.91;5020941;28;20034;-60
2022/03/02 08:19:49;;;;;;;7.93;5.68;;;;;;;8.47;31.30;95888.44;5012886;28;20018;-60
2022/03/02 08:22:18;;;;;;;7.93;6.00;;;;;;;8.55;31.53;95901.16;5013363;28;20103;-61
2022/03/02 08:24:56;;;;;;;6.82;5.90;;;;;;;8.63;31.48;95900.56;5012965;28;20030;-61
2022/03/02 08:27:22;;;;;;;10.68;5.85;;;;;;;8.62;31.12;95887.59;5012973;28;20116;-61
2022/03/02 08:29:55;;;;;;;7.15;5.43;;;;;;;8.66;30.57;95873.50;5012853;28;20108;-62
2022/03/02 08:32:21;;;;;;;8.15;5.30;;;;;;;8.79;30.51;95885.38;5019962;28;20033;-62
2022/03/02 08:34:48;;;;;;;6.43;4.70;;;;;;;8.81;30.21;95884.03;5011704;28;20014;-62
2022/03/02 08:37:17;;;;;;;6.75;4.50;;;;;;;8.89;29.53;95889.81;5013170;28;20032;-62
2022/03/02 08:39:43;;;;;;;5.50;4.45;;;;;;;8.95;29.71;95894.03;5013022;28;20018;-62
2022/03/02 08:42:08;;;;;;;8.43;5.20;;;;;;;9.01;29.88;95882.34;5012674;28;20042;-62
2022/03/02 08:44:35;;;;;;;7.75;5.35;;;;;;;8.74;29.26;95835.78;5012998;28;20043;-63
2022/03/02 08:47:01;;;;;;;6.40;5.20;;;;;;;9.18;29.66;95880.09;5016725;28;20021;-64
2022/03/02 08:49:26;;;;;;;7.88;5.47;;;;;;;9.21;29.37;95876.06;5032234;28;20033;-62
2022/03/02 08:51:54;;;;;;;10.25;6.25;;;;;;;9.10;29.03;95825.72;5032344;28;20112;-62
2022/03/02 08:54:20;;;;;;;8.68;5.38;;;;;;;9.17;28.98;95821.97;5031354;28;20061;-62
2022/03/02 08:56:47;;;;;;;7.57;5.85;;;;;;;9.67;28.23;95862.44;5032702;28;20502;-62
2022/03/02 08:59:14;;;;;;;7.88;4.97;;;;;;;9.82;27.81;95871.03;5030890;28;20026;-62
2022/03/02 09:01:47;;;;;;;8.13;5.32;;;;;;;9.89;27.91;95844.94;5031877;28;20259;-62
2022/03/02 09:04:15;;;;;;;6.47;5.28;;;;;;;10.24;27.17;95860.81;5015544;28;20034;-62
2022/03/02 09:06:41;;;;;;;7.20;5.18;;;;;;;10.36;26.64;95845.25;5012570;28;20032;-63
2022/03/02 09:09:07;;;;;;;6.85;5.03;;;;;;;10.19;25.88;95807.69;5012080;28;20026;-63
2022/03/02 09:11:33;;;;;;;10.43;5.18;;;;;;;10.57;25.43;95854.56;5012284;28;20033;-63
2022/03/02 09:14:01;;;;;;;7.97;4.78;;;;;;;10.65;25.32;95845.16;5012458;28;20037;-64
2022/03/02 09:16:27;;;;;;;6.60;5.43;;;;;;;10.77;24.72;95842.84;5012426;28;20021;-62
2022/03/02 09:18:53;;;;;;;5.55;5.10;;;;;;;10.98;24.67;95848.66;5017276;28;20026;-64
2022/03/02 09:21:21;;;;;;;6.40;5.35;;;;;;;10.91;25.36;95813.66;5011807;28;20033;-62
2022/03/02 09:23:47;;;;;;;8.20;5.47;;;;;;;11.17;25.12;95844.13;5012305;28;20026;-62
2022/03/02 09:26:16;;;;;;;9.35;5.75;;;;;;;10.93;24.77;95841.56;5012316;28;20056;-62
2022/03/02 09:28:44;;;;;;;7.82;5.97;;;;;;;10.88;25.45;95790.25;5010378;28;20137;-62
2022/03/02 09:31:11;;;;;;;8.38;6.10;;;;;;;10.99;24.40;95785.56;5011583;28;20041;-62
2022/03/02 09:33:37;;;;;;;10.07;6.30;;;;;;;10.97;24.45;95788.53;5016696;28;20034;-62
2022/03/02 09:36:06;;;;;;;7.82;6.53;;;;;;;11.22;24.85;95837.94;5011789;28;20037;-62
2022/03/02 09:38:33;;;;;;;7.78;6.30;;;;;;;11.14;24.54;95801.31;5011752;28;20029;-62
2022/03/02 09:41:05;;;;;;;6.57;5.70;;;;;;;11.25;24.12;95836.56;5011774;28;20386;-62
2022/03/02 09:43:33;;;;;;;8.27;5.82;;;;;;;11.01;24.48;95770.91;5012007;28;20025;-64
2022/03/02 09:46:05;;;;;;;9.27;6.25;;;;;;;11.21;24.56;95777.78;5010615;28;20034;-62
2022/03/02 09:48:33;;;;;;;10.45;6.22;;;;;;;11.70;23.77;95843.00;5025326;28;20026;-64
2022/03/02 09:51:02;;;;;;;13.88;7.03;;;;;;;11.43;24.07;95804.56;5030213;28;20113;-64
2022/03/02 09:53:30;;;;;;;7.72;6.70;;;;;;;11.50;24.29;95787.41;5030215;28;20025;-64
2022/03/02 09:55:59;;;;;;;10.55;7.25;;;;;;;11.65;24.17;95808.44;5031399;28;20025;-64
2022/03/02 09:58:27;;;;;;;8.48;6.65;;;;;;;11.37;24.24;95781.75;5030925;28;20479;-62
2022/03/02 10:00:55;;;;;;;13.63;7.65;;;;;;;11.04;24.33;95772.19;5031049;28;20053;-64
2022/03/02 10:03:23;;;;;;;12.88;7.80;;;;;;;11.88;24.63;95802.19;5022185;28;20112;-62
2022/03/02 10:05:52;;;;;;;15.63;9.00;;;;;;;11.80;25.49;95820.72;5010298;28;20037;-63
2022/03/02 10:08:23;;;;;;;16.92;9.23;;;;;;;10.57;26.94;95805.88;5011070;28;20072;-64
2022/03/02 10:10:49;;;;;;;17.20;9.05;;;;;;;11.50;26.05;95833.47;5011042;28;20062;-64
2022/03/02 10:13:16;;;;;;;12.55;9.25;;;;;;;11.57;26.45;95801.16;5009922;28;20443;-64
2022/03/02 10:15:43;;;;;;;20.13;10.00;;;;;;;12.33;25.89;95814.91;5009510;28;20030;-63
2022/03/02 10:18:11;;;;;;;19.33;11.13;;;;;;;12.53;25.93;95837.72;5009462;28;20044;-63
2022/03/02 10:20:39;;;;;;;14.93;9.40;;;;;;;12.43;24.98;95802.16;5010883;28;20406;-63
2022/03/02 10:23:32;;;;;;;22.55;9.25;;;;;;;12.88;24.62;95791.56;5011319;28;20045;-63
2022/03/02 10:26:02;;;;;;;15.65;8.70;;;;;;;13.44;24.22;95818.84;5011130;28;20556;-63
2022/03/02 10:28:49;;;;;;;12.95;9.00;;;;;;;13.81;24.06;95827.53;5010967;28;20478;-66
2022/03/02 10:31:27;;;;;;;13.40;9.93;;;;;;;13.60;24.66;95800.56;4980218;28;20095;-64
2022/03/02 10:34:14;;;;;;;18.15;9.00;;;;;;;12.78;25.41;95821.16;5013050;28;20092;-69
2022/03/02 10:36:42;;;;;;;16.60;9.43;;;;;;;13.23;24.87;95821.22;4980250;28;20037;-65
2022/03/02 10:39:08;;;;;;;24.10;9.38;;;;;;;12.60;25.34;95811.44;5010712;28;20025;-66
2022/03/02 10:41:39;;;;;;;18.42;9.68;;;;;;;13.09;24.37;95804.44;5010959;28;20018;-66
2022/03/02 10:44:20;;;;;;;15.88;8.93;;;;;;;13.53;24.24;95833.06;5009679;28;20030;-66
2022/03/02 10:46:55;;;;;;;16.90;8.93;;;;;;;13.49;23.93;95816.84;5010895;28;20025;-67
2022/03/02 10:49:21;;;;;;;18.33;9.05;;;;;;;13.41;24.26;95801.56;5008806;28;20025;-68
2022/03/02 10:51:48;;;;;;;12.18;8.55;;;;;;;13.98;24.41;95800.91;5010488;28;20029;-67
2022/03/02 10:54:20;;;;;;;15.68;8.18;;;;;;;13.49;24.20;95775.97;5011025;28;20026;-66
2022/03/02 10:56:49;;;;;;;12.07;7.82;;;;;;;13.12;24.26;95818.00;5010716;28;20458;-66
2022/03/02 10:59:20;;;;;;;11.60;8.18;;;;;;;13.13;24.02;95810.75;5010751;28;20442;-66
2022/03/02 11:01:48;;;;;;;9.35;8.35;;;;;;;12.69;24.34;95785.59;5009396;28;20061;-66
2022/03/02 11:04:17;;;;;;;12.60;7.65;;;;;;;13.19;23.93;95775.59;5011506;28;20080;-66
2022/03/02 11:06:44;;;;;;;14.05;7.78;;;;;;;12.83;24.42;95810.38;5009113;28;20482;-66
2022/03/02 11:09:09;;;;;;;14.10;8.15;;;;;;;12.96;24.32;95804.19;5010042;28;20045;-65
2022/03/02 11:11:38;;;;;;;13.35;7.35;;;;;;;12.94;24.61;95803.69;5009206;28;20387;-66
2022/03/02 11:14:06;;;;;;;17.25;7.53;;;;;;;13.15;23.89;95753.25;5009435;28;20081;-66
2022/03/02 11:16:32;;;;;;;14.45;7.65;;;;;;;13.52;23.59;95781.50;5010651;28;20034;-67
2022/03/02 11:19:10;;;;;;;11.75;7.43;;;;;;;13.67;23.07;95782.22;5009692;28;20390;-67
2022/03/02 11:21:39;;;;;;;12.68;7.38;;;;;;;13.81;23.00;95772.19;5010587;28;20475;-67
2022/03/02 11:24:05;;;;;;;11.10;7.60;;;;;;;13.46;22.75;95734.63;5010792;28;20026;-67
2022/03/02 11:26:40;;;;;;;10.85;6.97;;;;;;;14.00;22.71;95783.44;5013235;28;20119;-66
2022/03/02 11:29:11;;;;;;;7.65;6.82;;;;;;;14.37;22.58;95781.31;5012679;28;20491;-66
2022/03/02 11:31:46;;;;;;;11.82;7.20;;;;;;;14.45;22.00;95769.84;5014206;28;20034;-67